Terminal Aerodrome Forecast
Issued by NWS

Home | Current Version | Previous Version | Text Only | Print | Product List | Glossary On
Versions: 1 2 3 4 5 6 7 8 9 10 11 12 13 14 15 16 17 18 19 20 21 22 23 24 25 26 27 28 29 30 31 32
000
FTPQ31 PGUM 272038 RRK
TAFGRO
TAF
PGRO 272038Z 2721/2818 08008KT P6SM VCSH FEW020 SCT050
     FM280100 10012KT P6SM VCSH SCT018 SCT040
     FM280900 08008KT P6SM VCSH FEW020 SCT050=

USA.gov is the U.S. government's official web portal to all federal, state and local government web resources and services.